AIQ531 ZGGG-VTBS
Flight info
| Callsign | AIQ531 |
|---|---|
| Flight time | N/A |
| Altitude | 38100 |
| Route | VIBOS9/02L VIBOS R473 ZUH R200 BIGRO G221 SAMAS A202 ASSAD/K0870F380 A202 VILAO/N0470F380 A202 RAMEI W42 PAKRI Y13 RUKSA |
| Aircraft | A339/H-SADE1E2E3GHIJ3J5M1P2RWXY/LB2D1 |
Departure
| Time | 2026-05-04 04:28 |
|---|---|
| Airport | Guangzhou Baiyun International Airport (ZGGG) |
Arrival
| Time | N/A |
|---|---|
| Airport | Suvarnabhumi Airport (VTBS) |
| Time | Latitude | Longitude | Altitude | Speed | Heading |
|---|---|---|---|---|---|
| 2026-05-04 04:11 | 23.37448 | 113.31627 | 58 ft | 1 kts | 358° |
| 2026-05-04 04:11 | 23.37449 | 113.31627 | 58 ft | 0 kts | 358° |
| 2026-05-04 04:12 | 23.37453 | 113.31627 | 58 ft | 2 kts | 357° |
| 2026-05-04 04:13 | 23.37495 | 113.31638 | 58 ft | 10 kts | 17° |
| 2026-05-04 04:13 | 23.37595 | 113.31664 | 58 ft | 16 kts | 12° |
| 2026-05-04 04:13 | 23.37661 | 113.31679 | 58 ft | 7 kts | 12° |
| 2026-05-04 04:13 | 23.37719 | 113.31692 | 58 ft | 9 kts | 12° |
| 2026-05-04 04:14 | 23.37784 | 113.31707 | 58 ft | 10 kts | 12° |
| 2026-05-04 04:14 | 23.37857 | 113.31724 | 58 ft | 11 kts | 12° |
| 2026-05-04 04:14 | 23.37930 | 113.31714 | 58 ft | 10 kts | 307° |
| 2026-05-04 04:14 | 23.37953 | 113.31632 | 58 ft | 11 kts | 284° |
| 2026-05-04 04:15 | 23.37974 | 113.31543 | 58 ft | 12 kts | 284° |
| 2026-05-04 04:15 | 23.37997 | 113.31449 | 58 ft | 13 kts | 284° |
| 2026-05-04 04:15 | 23.37997 | 113.31353 | 58 ft | 12 kts | 231° |
| 2026-05-04 04:15 | 23.37913 | 113.31316 | 58 ft | 13 kts | 194° |
| 2026-05-04 04:16 | 23.37822 | 113.31290 | 58 ft | 13 kts | 194° |
| 2026-05-04 04:16 | 23.37769 | 113.31276 | 58 ft | 14 kts | 194° |
| 2026-05-04 04:16 | 23.37673 | 113.31250 | 58 ft | 14 kts | 193° |
| 2026-05-04 04:16 | 23.37573 | 113.31223 | 58 ft | 14 kts | 193° |
| 2026-05-04 04:17 | 23.37474 | 113.31198 | 58 ft | 15 kts | 193° |
| 2026-05-04 04:17 | 23.37371 | 113.31172 | 58 ft | 15 kts | 193° |
| 2026-05-04 04:17 | 23.37263 | 113.31142 | 58 ft | 16 kts | 194° |
| 2026-05-04 04:17 | 23.37155 | 113.31111 | 58 ft | 16 kts | 194° |
| 2026-05-04 04:18 | 23.37046 | 113.31081 | 58 ft | 16 kts | 194° |
| 2026-05-04 04:18 | 23.36939 | 113.31055 | 58 ft | 15 kts | 178° |
| 2026-05-04 04:18 | 23.36888 | 113.31120 | 58 ft | 7 kts | 129° |
| 2026-05-04 04:18 | 23.36859 | 113.31119 | 58 ft | 5 kts | 205° |
| 2026-05-04 04:19 | 23.36818 | 113.31102 | 58 ft | 7 kts | 197° |
| 2026-05-04 04:19 | 23.36766 | 113.31084 | 58 ft | 8 kts | 197° |
| 2026-05-04 04:19 | 23.36706 | 113.31064 | 58 ft | 9 kts | 197° |
| 2026-05-04 04:19 | 23.36640 | 113.31045 | 58 ft | 10 kts | 194° |
| 2026-05-04 04:20 | 23.36559 | 113.31023 | 58 ft | 13 kts | 194° |
| 2026-05-04 04:20 | 23.36482 | 113.30983 | 58 ft | 9 kts | 245° |
| 2026-05-04 04:20 | 23.36470 | 113.30929 | 58 ft | 4 kts | 217° |
| 2026-05-04 04:20 | 23.36425 | 113.30913 | 58 ft | 9 kts | 197° |
| 2026-05-04 04:21 | 23.36345 | 113.30888 | 58 ft | 13 kts | 194° |
| 2026-05-04 04:21 | 23.36240 | 113.30858 | 58 ft | 17 kts | 194° |
| 2026-05-04 04:21 | 23.36137 | 113.30830 | 58 ft | 19 kts | 194° |
| 2026-05-04 04:21 | 23.36030 | 113.30746 | 58 ft | 17 kts | 262° |
| 2026-05-04 04:22 | 23.36022 | 113.30632 | 58 ft | 14 kts | 291° |
| 2026-05-04 04:22 | 23.36037 | 113.30516 | 58 ft | 21 kts | 285° |
| 2026-05-04 04:22 | 23.36106 | 113.30345 | 58 ft | 27 kts | 313° |
| 2026-05-04 04:22 | 23.36291 | 113.30280 | 58 ft | 31 kts | 4° |
| 2026-05-04 04:23 | 23.36441 | 113.30312 | 58 ft | 22 kts | 13° |
| 2026-05-04 04:23 | 23.36584 | 113.30350 | 58 ft | 17 kts | 13° |
| 2026-05-04 04:23 | 23.36644 | 113.30338 | 58 ft | 9 kts | 304° |
| 2026-05-04 04:23 | 23.36667 | 113.30271 | 58 ft | 9 kts | 285° |
| 2026-05-04 04:24 | 23.36687 | 113.30190 | 58 ft | 14 kts | 284° |
| 2026-05-04 04:24 | 23.36723 | 113.30067 | 58 ft | 18 kts | 308° |
| 2026-05-04 04:24 | 23.36832 | 113.30063 | 58 ft | 20 kts | 14° |
| 2026-05-04 04:24 | 23.36994 | 113.30108 | 58 ft | 28 kts | 14° |
| 2026-05-04 04:25 | 23.37175 | 113.30161 | 58 ft | 28 kts | 14° |
| 2026-05-04 04:25 | 23.37339 | 113.30205 | 58 ft | 27 kts | 13° |
| 2026-05-04 04:25 | 23.37519 | 113.30249 | 58 ft | 25 kts | 9° |
| 2026-05-04 04:25 | 23.37624 | 113.30335 | 58 ft | 17 kts | 108° |
| 2026-05-04 04:26 | 23.37594 | 113.30428 | 58 ft | 10 kts | 72° |
| 2026-05-04 04:26 | 23.37613 | 113.30505 | 58 ft | 11 kts | 75° |
| 2026-05-04 04:26 | 23.37647 | 113.30550 | 58 ft | 0 kts | 20° |
| 2026-05-04 04:27 | 23.37649 | 113.30551 | 58 ft | 5 kts | 20° |
| 2026-05-04 04:27 | 23.37889 | 113.30622 | 58 ft | 76 kts | 14° |
| 2026-05-04 04:27 | 23.38667 | 113.30843 | 59 ft | 146 kts | 13° |
| 2026-05-04 04:28 | 23.39744 | 113.31138 | 198 ft | 186 kts | 14° |
| 2026-05-04 04:28 | 23.41002 | 113.31480 | 1024 ft | 184 kts | 14° |
| 2026-05-04 04:28 | 23.42199 | 113.31827 | 1914 ft | 181 kts | 15° |
| 2026-05-04 04:28 | 23.43423 | 113.32192 | 2420 ft | 190 kts | 15° |
| 2026-05-04 04:29 | 23.44729 | 113.32581 | 2764 ft | 206 kts | 15° |
| 2026-05-04 04:29 | 23.46171 | 113.33012 | 3133 ft | 225 kts | 15° |
| 2026-05-04 04:29 | 23.47716 | 113.33472 | 3548 ft | 242 kts | 15° |
| 2026-05-04 04:29 | 23.49365 | 113.33964 | 4163 ft | 249 kts | 15° |
| 2026-05-04 04:30 | 23.51046 | 113.34464 | 4913 ft | 251 kts | 15° |
| 2026-05-04 04:30 | 23.52720 | 113.34965 | 5565 ft | 256 kts | 15° |
| 2026-05-04 04:30 | 23.54446 | 113.35485 | 6148 ft | 263 kts | 14° |
| 2026-05-04 04:30 | 23.56225 | 113.35963 | 6760 ft | 268 kts | 8° |
| 2026-05-04 04:31 | 23.58065 | 113.36335 | 7423 ft | 271 kts | 6° |
| 2026-05-04 04:31 | 23.59749 | 113.36610 | 8043 ft | 269 kts | 355° |
| 2026-05-04 04:31 | 23.61489 | 113.36283 | 8516 ft | 254 kts | 328° |
| 2026-05-04 04:31 | 23.62852 | 113.35140 | 9080 ft | 249 kts | 303° |
| 2026-05-04 04:32 | 23.63620 | 113.33459 | 9454 ft | 257 kts | 280° |
| 2026-05-04 04:32 | 23.63900 | 113.31531 | 10001 ft | 264 kts | 277° |
| 2026-05-04 04:32 | 23.64148 | 113.29547 | 10631 ft | 269 kts | 277° |
| 2026-05-04 04:32 | 23.64414 | 113.27480 | 10945 ft | 285 kts | 277° |
| 2026-05-04 04:33 | 23.64704 | 113.25294 | 11242 ft | 301 kts | 277° |
| 2026-05-04 04:33 | 23.65016 | 113.22990 | 11563 ft | 316 kts | 277° |
| 2026-05-04 04:33 | 23.65339 | 113.20615 | 12160 ft | 322 kts | 277° |
| 2026-05-04 04:33 | 23.65549 | 113.18185 | 12903 ft | 324 kts | 268° |
| 2026-05-04 04:34 | 23.65061 | 113.15807 | 13593 ft | 330 kts | 250° |
| 2026-05-04 04:34 | 23.63814 | 113.13663 | 14259 ft | 341 kts | 232° |
| 2026-05-04 04:34 | 23.62134 | 113.11861 | 14990 ft | 344 kts | 229° |
| 2026-05-04 04:34 | 23.60389 | 113.10081 | 15743 ft | 346 kts | 225° |
| 2026-05-04 04:35 | 23.58336 | 113.08674 | 16447 ft | 357 kts | 210° |
| 2026-05-04 04:35 | 23.55936 | 113.07961 | 17126 ft | 372 kts | 193° |
| 2026-05-04 04:35 | 23.53341 | 113.07874 | 17844 ft | 378 kts | 187° |
| 2026-05-04 04:35 | 23.50715 | 113.07908 | 18458 ft | 380 kts | 187° |
| 2026-05-04 04:36 | 23.48087 | 113.07946 | 18767 ft | 380 kts | 187° |
| 2026-05-04 04:36 | 23.45472 | 113.07974 | 18801 ft | 379 kts | 187° |
| 2026-05-04 04:36 | 23.42836 | 113.07996 | 18803 ft | 378 kts | 187° |
| 2026-05-04 04:36 | 23.40219 | 113.08012 | 18804 ft | 378 kts | 187° |
| 2026-05-04 04:37 | 23.32374 | 113.08056 | 18804 ft | 378 kts | 187° |
| 2026-05-04 04:37 | 23.29740 | 113.08073 | 18804 ft | 379 kts | 186° |
| 2026-05-04 04:38 | 23.27109 | 113.08329 | 18804 ft | 386 kts | 179° |
| 2026-05-04 04:38 | 23.24463 | 113.08985 | 18804 ft | 394 kts | 171° |
| 2026-05-04 04:38 | 23.21888 | 113.10004 | 18803 ft | 398 kts | 165° |
| 2026-05-04 04:38 | 23.19336 | 113.11156 | 18799 ft | 398 kts | 163° |
| 2026-05-04 04:39 | 23.16805 | 113.12331 | 18796 ft | 398 kts | 163° |
| 2026-05-04 04:39 | 23.14282 | 113.13500 | 18793 ft | 398 kts | 163° |
| 2026-05-04 04:39 | 23.11724 | 113.14676 | 18792 ft | 398 kts | 163° |
| 2026-05-04 04:39 | 23.09180 | 113.15837 | 18791 ft | 398 kts | 163° |
| 2026-05-04 04:40 | 23.06626 | 113.17000 | 18791 ft | 398 kts | 163° |
| 2026-05-04 04:40 | 23.04087 | 113.18153 | 18790 ft | 398 kts | 163° |
| 2026-05-04 04:40 | 23.01534 | 113.19228 | 18790 ft | 395 kts | 167° |
| 2026-05-04 04:40 | 22.98928 | 113.20165 | 18791 ft | 394 kts | 168° |
| 2026-05-04 04:41 | 22.96334 | 113.21067 | 18790 ft | 394 kts | 168° |
| 2026-05-04 04:41 | 22.93705 | 113.21976 | 18790 ft | 394 kts | 168° |
| 2026-05-04 04:41 | 22.91101 | 113.22877 | 18829 ft | 397 kts | 168° |
| 2026-05-04 04:41 | 22.88459 | 113.23789 | 19296 ft | 402 kts | 168° |
| 2026-05-04 04:42 | 22.85803 | 113.24709 | 20028 ft | 401 kts | 168° |
| 2026-05-04 04:42 | 22.83165 | 113.25623 | 20667 ft | 402 kts | 168° |
| 2026-05-04 04:42 | 22.80526 | 113.26537 | 21233 ft | 405 kts | 168° |
| 2026-05-04 04:42 | 22.77814 | 113.27476 | 21777 ft | 408 kts | 168° |
| 2026-05-04 04:43 | 22.75135 | 113.28404 | 22306 ft | 411 kts | 167° |
| 2026-05-04 04:43 | 22.72394 | 113.29354 | 22864 ft | 412 kts | 167° |
| 2026-05-04 04:43 | 22.69696 | 113.30289 | 23413 ft | 413 kts | 167° |
| 2026-05-04 04:43 | 22.66958 | 113.31237 | 23895 ft | 416 kts | 167° |
| 2026-05-04 04:44 | 22.64184 | 113.32198 | 24345 ft | 419 kts | 168° |
| 2026-05-04 04:44 | 22.61410 | 113.33158 | 24781 ft | 423 kts | 168° |
| 2026-05-04 04:44 | 22.58634 | 113.34119 | 25205 ft | 426 kts | 168° |
| 2026-05-04 04:44 | 22.55792 | 113.35103 | 25625 ft | 429 kts | 168° |
| 2026-05-04 04:45 | 22.52943 | 113.36087 | 26032 ft | 431 kts | 168° |
| 2026-05-04 04:45 | 22.50116 | 113.37064 | 26423 ft | 434 kts | 168° |
| 2026-05-04 04:45 | 22.47223 | 113.38062 | 26809 ft | 437 kts | 168° |
| 2026-05-04 04:47 | 22.29574 | 113.43346 | 28995 ft | 434 kts | 188° |
| 2026-05-04 04:47 | 22.26632 | 113.42906 | 29326 ft | 426 kts | 200° |
| 2026-05-04 04:47 | 22.23920 | 113.41795 | 29638 ft | 419 kts | 212° |
| 2026-05-04 04:47 | 22.21487 | 113.40063 | 29842 ft | 417 kts | 224° |
| 2026-05-04 04:48 | 22.19501 | 113.37844 | 30044 ft | 417 kts | 235° |
| 2026-05-04 04:49 | 22.14676 | 113.26502 | 31259 ft | 421 kts | 249° |
| 2026-05-04 04:49 | 22.13567 | 113.23608 | 31664 ft | 420 kts | 247° |
| 2026-05-04 04:49 | 22.12380 | 113.20737 | 32070 ft | 419 kts | 246° |
| 2026-05-04 04:49 | 22.11188 | 113.17866 | 32467 ft | 418 kts | 246° |
| 2026-05-04 04:50 | 22.10002 | 113.15012 | 32851 ft | 417 kts | 246° |
| 2026-05-04 04:50 | 22.08815 | 113.12158 | 33225 ft | 416 kts | 246° |
| 2026-05-04 04:50 | 22.07641 | 113.09337 | 33587 ft | 415 kts | 247° |
| 2026-05-04 04:50 | 22.06466 | 113.06512 | 33940 ft | 414 kts | 247° |
| 2026-05-04 04:51 | 22.05295 | 113.03702 | 34283 ft | 413 kts | 247° |
| 2026-05-04 04:51 | 22.04120 | 113.00882 | 34625 ft | 412 kts | 247° |
| 2026-05-04 04:51 | 22.02969 | 112.98054 | 34997 ft | 410 kts | 248° |
| 2026-05-04 04:51 | 22.01880 | 112.95253 | 35381 ft | 407 kts | 248° |
| 2026-05-04 04:52 | 22.00790 | 112.92428 | 35739 ft | 405 kts | 248° |
| 2026-05-04 04:52 | 21.99722 | 112.89665 | 36034 ft | 404 kts | 248° |
| 2026-05-04 04:52 | 21.98632 | 112.86861 | 36303 ft | 404 kts | 248° |
| 2026-05-04 04:52 | 21.97556 | 112.84099 | 36536 ft | 404 kts | 248° |
| 2026-05-04 04:53 | 21.96459 | 112.81297 | 36734 ft | 405 kts | 248° |
| 2026-05-04 04:53 | 21.95351 | 112.78534 | 36917 ft | 406 kts | 248° |
| 2026-05-04 04:53 | 21.94214 | 112.75721 | 37102 ft | 407 kts | 248° |
| 2026-05-04 04:53 | 21.93088 | 112.72945 | 37295 ft | 407 kts | 248° |
| 2026-05-04 04:54 | 21.91965 | 112.70170 | 37567 ft | 405 kts | 248° |
| 2026-05-04 04:54 | 21.90849 | 112.67406 | 37817 ft | 404 kts | 248° |
| 2026-05-04 04:54 | 21.89733 | 112.64640 | 37987 ft | 405 kts | 248° |
| 2026-05-04 04:54 | 21.88616 | 112.61872 | 38133 ft | 406 kts | 248° |
| 2026-05-04 04:55 | 21.86367 | 112.56309 | 38175 ft | 407 kts | 248° |
| 2026-05-04 04:55 | 21.84129 | 112.50719 | 38179 ft | 407 kts | 249° |
| 2026-05-04 04:56 | 21.81902 | 112.45100 | 38179 ft | 407 kts | 249° |
| 2026-05-04 04:56 | 21.79690 | 112.39526 | 38179 ft | 407 kts | 249° |
| 2026-05-04 04:57 | 21.77480 | 112.33964 | 38182 ft | 407 kts | 248° |
| 2026-05-04 04:57 | 21.75246 | 112.28349 | 38181 ft | 407 kts | 249° |
| 2026-05-04 04:58 | 21.73029 | 112.22768 | 38174 ft | 411 kts | 248° |
| 2026-05-04 04:58 | 21.70767 | 112.17105 | 38165 ft | 411 kts | 248° |
| 2026-05-04 04:59 | 21.68524 | 112.11490 | 38160 ft | 411 kts | 248° |
| 2026-05-04 04:59 | 21.66279 | 112.05875 | 38159 ft | 411 kts | 248° |
| 2026-05-04 05:00 | 21.64024 | 112.00238 | 38159 ft | 411 kts | 248° |
| 2026-05-04 05:01 | 21.60640 | 111.91795 | 38159 ft | 411 kts | 248° |
| 2026-05-04 05:01 | 21.58135 | 111.86270 | 38159 ft | 412 kts | 243° |
| 2026-05-04 05:02 | 21.55124 | 111.80988 | 38159 ft | 413 kts | 238° |
| 2026-05-04 05:02 | 21.51679 | 111.76075 | 38159 ft | 415 kts | 233° |
| 2026-05-04 05:03 | 21.47964 | 111.71368 | 38159 ft | 415 kts | 232° |
| 2026-05-04 05:04 | 21.40468 | 111.61930 | 38160 ft | 415 kts | 232° |
| 2026-05-04 05:04 | 21.36738 | 111.57244 | 38160 ft | 415 kts | 232° |
| 2026-05-04 05:06 | 21.21767 | 111.38469 | 38160 ft | 416 kts | 231° |
| 2026-05-04 05:07 | 21.17998 | 111.33762 | 38162 ft | 416 kts | 231° |
| 2026-05-04 05:07 | 21.14241 | 111.29072 | 38159 ft | 416 kts | 231° |
| 2026-05-04 05:09 | 20.97243 | 111.07879 | 38159 ft | 419 kts | 231° |
| 2026-05-04 05:10 | 20.93463 | 111.03166 | 38159 ft | 419 kts | 231° |
| 2026-05-04 05:10 | 20.89691 | 110.98440 | 38159 ft | 419 kts | 232° |
| 2026-05-04 05:11 | 20.85923 | 110.93721 | 38159 ft | 419 kts | 232° |
| 2026-05-04 05:11 | 20.82140 | 110.88986 | 38159 ft | 419 kts | 232° |
| 2026-05-04 05:12 | 20.78345 | 110.84242 | 38159 ft | 419 kts | 232° |
| 2026-05-04 05:12 | 20.74579 | 110.79537 | 38158 ft | 419 kts | 232° |
| 2026-05-04 05:13 | 20.70762 | 110.74773 | 38155 ft | 421 kts | 232° |
| 2026-05-04 05:13 | 20.66956 | 110.70023 | 38155 ft | 423 kts | 231° |
| 2026-05-04 05:14 | 20.63131 | 110.65258 | 38157 ft | 423 kts | 231° |
| 2026-05-04 05:14 | 20.59289 | 110.60474 | 38157 ft | 423 kts | 231° |
| 2026-05-04 05:15 | 20.55463 | 110.55714 | 38157 ft | 423 kts | 231° |
| 2026-05-04 05:15 | 20.51657 | 110.50983 | 38157 ft | 423 kts | 231° |
| 2026-05-04 05:16 | 20.47889 | 110.46176 | 38157 ft | 422 kts | 233° |
| 2026-05-04 05:16 | 20.44209 | 110.41329 | 38157 ft | 422 kts | 233° |
| 2026-05-04 05:17 | 20.40491 | 110.36445 | 38157 ft | 422 kts | 233° |
| 2026-05-04 05:17 | 20.36791 | 110.31599 | 38158 ft | 423 kts | 232° |
| 2026-05-04 05:18 | 20.33067 | 110.26729 | 38157 ft | 423 kts | 232° |
| 2026-05-04 05:18 | 20.29356 | 110.21876 | 38155 ft | 426 kts | 233° |
| 2026-05-04 05:19 | 20.25649 | 110.16931 | 38154 ft | 428 kts | 233° |
| 2026-05-04 05:19 | 20.21825 | 110.11816 | 38149 ft | 427 kts | 233° |
| 2026-05-04 05:20 | 20.17921 | 110.06611 | 38143 ft | 428 kts | 233° |
| 2026-05-04 05:20 | 20.14108 | 110.01534 | 38140 ft | 428 kts | 233° |
| 2026-05-04 05:21 | 20.10274 | 109.96433 | 38140 ft | 428 kts | 233° |
| 2026-05-04 05:21 | 20.06476 | 109.91384 | 38139 ft | 428 kts | 233° |
| 2026-05-04 05:22 | 20.02645 | 109.86295 | 38139 ft | 428 kts | 233° |
| 2026-05-04 05:22 | 19.98879 | 109.81297 | 38139 ft | 428 kts | 233° |
| 2026-05-04 05:23 | 19.95164 | 109.76370 | 38139 ft | 428 kts | 233° |
| 2026-05-04 05:23 | 19.91447 | 109.71442 | 38141 ft | 429 kts | 233° |
| 2026-05-04 05:24 | 19.87675 | 109.66449 | 38144 ft | 430 kts | 233° |
| 2026-05-04 05:24 | 19.83916 | 109.61478 | 38144 ft | 430 kts | 233° |
| 2026-05-04 05:25 | 19.80173 | 109.56531 | 38144 ft | 430 kts | 233° |
| 2026-05-04 05:25 | 19.76440 | 109.51601 | 38145 ft | 430 kts | 233° |
| 2026-05-04 05:26 | 19.72692 | 109.46656 | 38143 ft | 432 kts | 233° |
| 2026-05-04 05:26 | 19.68926 | 109.41690 | 38141 ft | 433 kts | 233° |
| 2026-05-04 05:28 | 19.53828 | 109.21823 | 38139 ft | 433 kts | 233° |
| 2026-05-04 05:29 | 19.50042 | 109.16870 | 38139 ft | 434 kts | 232° |
| 2026-05-04 05:29 | 19.46207 | 109.11900 | 38139 ft | 435 kts | 232° |
| 2026-05-04 05:31 | 19.30917 | 108.92099 | 38139 ft | 435 kts | 232° |
| 2026-05-04 05:32 | 19.27074 | 108.87130 | 38139 ft | 435 kts | 232° |
| 2026-05-04 05:33 | 19.21335 | 108.79726 | 38139 ft | 435 kts | 232° |
| 2026-05-04 05:33 | 19.17495 | 108.74774 | 38139 ft | 435 kts | 232° |
| 2026-05-04 05:34 | 19.13665 | 108.69837 | 38134 ft | 435 kts | 232° |
| 2026-05-04 05:34 | 19.09801 | 108.64860 | 38128 ft | 436 kts | 232° |
| 2026-05-04 05:35 | 19.05962 | 108.59918 | 38126 ft | 436 kts | 232° |
| 2026-05-04 05:35 | 19.02135 | 108.54998 | 38126 ft | 436 kts | 232° |
| 2026-05-04 05:36 | 18.98300 | 108.50069 | 38064 ft | 436 kts | 232° |
| 2026-05-04 05:36 | 18.94438 | 108.45110 | 38033 ft | 436 kts | 232° |
| 2026-05-04 05:37 | 18.90597 | 108.40182 | 38027 ft | 436 kts | 232° |
| 2026-05-04 05:37 | 18.86725 | 108.35218 | 38026 ft | 436 kts | 232° |
| 2026-05-04 05:38 | 18.81156 | 108.28085 | 38026 ft | 436 kts | 232° |
| 2026-05-04 05:38 | 18.77280 | 108.23127 | 38027 ft | 435 kts | 232° |
| 2026-05-04 05:39 | 18.71522 | 108.15770 | 38031 ft | 435 kts | 232° |
| 2026-05-04 05:40 | 18.65728 | 108.08369 | 38029 ft | 435 kts | 232° |
| 2026-05-04 05:40 | 18.61877 | 108.03455 | 38029 ft | 435 kts | 232° |
| 2026-05-04 05:41 | 18.58018 | 107.98537 | 38029 ft | 435 kts | 232° |
| 2026-05-04 05:41 | 18.54152 | 107.93613 | 38029 ft | 435 kts | 232° |
| 2026-05-04 05:42 | 18.50290 | 107.88699 | 38029 ft | 435 kts | 232° |
| 2026-05-04 05:42 | 18.46423 | 107.83780 | 38029 ft | 435 kts | 232° |
| 2026-05-04 05:43 | 18.42577 | 107.78891 | 38029 ft | 435 kts | 232° |
| 2026-05-04 05:45 | 18.28291 | 107.58503 | 38034 ft | 433 kts | 239° |
| 2026-05-04 05:47 | 18.15290 | 107.37018 | 38024 ft | 438 kts | 239° |
| 2026-05-04 05:47 | 18.12002 | 107.31596 | 38025 ft | 439 kts | 239° |
| 2026-05-04 05:48 | 18.08742 | 107.26227 | 38024 ft | 439 kts | 239° |
| 2026-05-04 05:48 | 18.05457 | 107.20826 | 38026 ft | 437 kts | 239° |
| 2026-05-04 05:49 | 18.02195 | 107.15472 | 38031 ft | 437 kts | 239° |
| 2026-05-04 05:49 | 17.98924 | 107.10107 | 38033 ft | 437 kts | 239° |
| 2026-05-04 05:51 | 17.86077 | 106.89052 | 38034 ft | 437 kts | 239° |
| 2026-05-04 05:52 | 17.82815 | 106.83683 | 38034 ft | 437 kts | 239° |
| 2026-05-04 05:52 | 17.79535 | 106.78288 | 38034 ft | 437 kts | 239° |
| 2026-05-04 05:54 | 17.66434 | 106.56795 | 38051 ft | 438 kts | 239° |
| 2026-05-04 05:55 | 17.63155 | 106.51450 | 38052 ft | 438 kts | 239° |
| 2026-05-04 05:55 | 17.59854 | 106.46072 | 38052 ft | 438 kts | 239° |
| 2026-05-04 05:56 | 17.56563 | 106.40711 | 38052 ft | 438 kts | 239° |
| 2026-05-04 05:56 | 17.53267 | 106.35346 | 38052 ft | 438 kts | 239° |
| 2026-05-04 05:57 | 17.50139 | 106.30259 | 38053 ft | 438 kts | 239° |
| 2026-05-04 05:57 | 17.46851 | 106.24915 | 38052 ft | 438 kts | 239° |
| 2026-05-04 05:58 | 17.43548 | 106.19549 | 38060 ft | 439 kts | 239° |
| 2026-05-04 05:58 | 17.40232 | 106.14166 | 38068 ft | 440 kts | 239° |
| 2026-05-04 05:59 | 17.36930 | 106.08813 | 38072 ft | 440 kts | 239° |
| 2026-05-04 05:59 | 17.33658 | 106.03437 | 38073 ft | 439 kts | 239° |
| 2026-05-04 06:00 | 17.30476 | 105.98174 | 38073 ft | 439 kts | 239° |
| 2026-05-04 06:00 | 17.27206 | 105.92773 | 38073 ft | 439 kts | 239° |
| 2026-05-04 06:01 | 17.23944 | 105.87393 | 38073 ft | 439 kts | 239° |
| 2026-05-04 06:03 | 17.13325 | 105.69913 | 37947 ft | 438 kts | 239° |
| 2026-05-04 06:03 | 17.11685 | 105.67216 | 37932 ft | 438 kts | 239° |
| 2026-05-04 06:05 | 16.97000 | 105.43118 | 37904 ft | 439 kts | 239° |
| 2026-05-04 06:06 | 16.93726 | 105.37756 | 37904 ft | 439 kts | 239° |
| 2026-05-04 06:06 | 16.90437 | 105.32375 | 37905 ft | 439 kts | 239° |
| 2026-05-04 06:07 | 16.87167 | 105.27029 | 37904 ft | 439 kts | 239° |
| 2026-05-04 06:07 | 16.83894 | 105.21684 | 37900 ft | 440 kts | 239° |
| 2026-05-04 06:08 | 16.80601 | 105.16325 | 37886 ft | 440 kts | 239° |
| 2026-05-04 06:08 | 16.77308 | 105.10967 | 37879 ft | 440 kts | 239° |
| 2026-05-04 06:09 | 16.73999 | 105.05583 | 37875 ft | 440 kts | 239° |
| 2026-05-04 06:11 | 16.60749 | 104.84067 | 37854 ft | 441 kts | 239° |
| 2026-05-04 06:13 | 16.45426 | 104.64154 | 37859 ft | 444 kts | 230° |
| 2026-05-04 06:14 | 16.31033 | 104.47426 | 37859 ft | 444 kts | 230° |
| 2026-05-04 06:15 | 16.26903 | 104.42632 | 37859 ft | 444 kts | 230° |
| 2026-05-04 06:15 | 16.22772 | 104.37895 | 37858 ft | 445 kts | 230° |
| 2026-05-04 06:16 | 16.18605 | 104.33147 | 37856 ft | 445 kts | 229° |
| 2026-05-04 06:16 | 16.14446 | 104.28404 | 37853 ft | 445 kts | 229° |
| 2026-05-04 06:17 | 16.10294 | 104.23663 | 37851 ft | 446 kts | 229° |
| 2026-05-04 06:17 | 16.06130 | 104.18913 | 37850 ft | 447 kts | 229° |
| 2026-05-04 06:18 | 16.01988 | 104.14112 | 37849 ft | 447 kts | 230° |
| 2026-05-04 06:20 | 15.85502 | 103.94888 | 37849 ft | 447 kts | 230° |
| 2026-05-04 06:21 | 15.75186 | 103.82894 | 37849 ft | 447 kts | 230° |
| 2026-05-04 06:22 | 15.71062 | 103.78106 | 37846 ft | 447 kts | 230° |
| 2026-05-04 06:25 | 15.42642 | 103.45185 | 37842 ft | 449 kts | 230° |
| 2026-05-04 06:26 | 15.39020 | 103.41000 | 37842 ft | 449 kts | 230° |
| 2026-05-04 06:26 | 15.34866 | 103.36203 | 37842 ft | 449 kts | 230° |
| 2026-05-04 06:27 | 15.24448 | 103.24187 | 37843 ft | 449 kts | 230° |
| 2026-05-04 06:28 | 15.20297 | 103.19405 | 37839 ft | 447 kts | 230° |
| 2026-05-04 06:28 | 15.16173 | 103.14653 | 37836 ft | 447 kts | 230° |
| 2026-05-04 06:29 | 15.12251 | 103.10139 | 37835 ft | 447 kts | 230° |
| 2026-05-04 06:29 | 15.08020 | 103.05438 | 37834 ft | 448 kts | 226° |
| 2026-05-04 06:30 | 15.03523 | 103.01293 | 37834 ft | 449 kts | 221° |
| 2026-05-04 06:30 | 14.98841 | 102.97783 | 37726 ft | 452 kts | 215° |
| 2026-05-04 06:31 | 14.96164 | 102.96072 | 37475 ft | 450 kts | 213° |
| 2026-05-04 06:31 | 14.93553 | 102.94319 | 37224 ft | 445 kts | 218° |
| 2026-05-04 06:31 | 14.91185 | 102.92326 | 36976 ft | 441 kts | 225° |
| 2026-05-04 06:31 | 14.89046 | 102.90071 | 36726 ft | 437 kts | 231° |
| 2026-05-04 06:32 | 14.87180 | 102.87608 | 36478 ft | 435 kts | 237° |
| 2026-05-04 06:33 | 14.79665 | 102.67357 | 33447 ft | 434 kts | 252° |
| 2026-05-04 06:34 | 14.78759 | 102.64395 | 32892 ft | 435 kts | 252° |
| 2026-05-04 06:34 | 14.77846 | 102.61415 | 32323 ft | 435 kts | 252° |
| 2026-05-04 06:34 | 14.76936 | 102.58453 | 31750 ft | 436 kts | 252° |
| 2026-05-04 06:34 | 14.76020 | 102.55473 | 31164 ft | 437 kts | 252° |
| 2026-05-04 06:35 | 14.75104 | 102.52496 | 30575 ft | 438 kts | 252° |
| 2026-05-04 06:36 | 14.68827 | 102.32143 | 27916 ft | 413 kts | 252° |
| 2026-05-04 06:37 | 14.67957 | 102.29330 | 27546 ft | 410 kts | 252° |
| 2026-05-04 06:37 | 14.67097 | 102.26548 | 27177 ft | 407 kts | 252° |
| 2026-05-04 06:37 | 14.66246 | 102.23795 | 26807 ft | 405 kts | 251° |
| 2026-05-04 06:37 | 14.65388 | 102.21016 | 26446 ft | 402 kts | 251° |
| 2026-05-04 06:38 | 14.64550 | 102.18310 | 26102 ft | 399 kts | 251° |
| 2026-05-04 06:38 | 14.63703 | 102.15578 | 25758 ft | 397 kts | 251° |
| 2026-05-04 06:40 | 14.57894 | 101.96856 | 23356 ft | 386 kts | 251° |
| 2026-05-04 06:40 | 14.57083 | 101.94247 | 23012 ft | 384 kts | 251° |
| 2026-05-04 06:40 | 14.56211 | 101.91650 | 22661 ft | 382 kts | 249° |
| 2026-05-04 06:40 | 14.55227 | 101.89110 | 22259 ft | 382 kts | 247° |
| 2026-05-04 06:41 | 14.54219 | 101.86589 | 21860 ft | 381 kts | 247° |
| 2026-05-04 06:41 | 14.53206 | 101.84063 | 21477 ft | 380 kts | 247° |
| 2026-05-04 06:41 | 14.52190 | 101.81531 | 21101 ft | 378 kts | 247° |
| 2026-05-04 06:41 | 14.51185 | 101.79023 | 20733 ft | 376 kts | 248° |
| 2026-05-04 06:42 | 14.50192 | 101.76545 | 20369 ft | 375 kts | 248° |
| 2026-05-04 06:42 | 14.49202 | 101.74074 | 20007 ft | 373 kts | 248° |
| 2026-05-04 06:42 | 14.48205 | 101.71587 | 19652 ft | 371 kts | 248° |
| 2026-05-04 06:44 | 14.41437 | 101.54698 | 17190 ft | 359 kts | 248° |
| 2026-05-04 06:44 | 14.40473 | 101.52296 | 16833 ft | 357 kts | 248° |
| 2026-05-04 06:44 | 14.39524 | 101.49933 | 16480 ft | 355 kts | 248° |
| 2026-05-04 06:45 | 14.38582 | 101.47589 | 16130 ft | 354 kts | 248° |
| 2026-05-04 06:45 | 14.37791 | 101.45622 | 15836 ft | 353 kts | 248° |
| 2026-05-04 06:45 | 14.36853 | 101.43292 | 15486 ft | 351 kts | 247° |
| 2026-05-04 06:45 | 14.35924 | 101.40983 | 15138 ft | 350 kts | 247° |
| 2026-05-04 06:46 | 14.35034 | 101.38772 | 14803 ft | 349 kts | 247° |
| 2026-05-04 06:46 | 14.34238 | 101.36797 | 14500 ft | 348 kts | 247° |
| 2026-05-04 06:46 | 14.33310 | 101.34494 | 14148 ft | 347 kts | 247° |